Latest Coastal Weather Observations for Yanakie

IDV60701

Issued at 4:11 am EDT Sunday 21 December 2014 (issued every 10 minutes, with the page automatically refreshed every 10 minutes)

About coastal observations | Map of coastal stations | Coastal observations for VIC | Marine services | Other Formats
Station Details ID: 085301 Name: YANAKIE Lat: -38.81 Lon: 146.19 Height: 13.3 m
Data from the previous 72 hours. | See also: Recent months at Yanakie
Date/Time
EDT
Temp

°C
Wind Pressure Rain
since 9am
mm
Weather Cloud Vis
km
Sea
Height
m
Swell
Dir
 
Speed
knots
Gust
knots
hPa Trend Height
m
Period
s
Dir
21/04:00am 9.3 N 3 4 1014.6 - 0.0 - - - - - - -
21/03:30am 10.9 N 4 5 1015.2 - 0.0 - - - - - - -
21/03:00am 10.5 N 1 2 1015.4 - 0.0 - - - - - - -
21/02:30am 10.6 N 2 3 1015.8 - 0.0 - - - - - - -
21/02:00am 10.8 N 2 4 1016.2 - 0.0 - - - - - - -
21/01:30am 9.6 CALM 0 0 1016.4 - 0.0 - - - - - - -
21/01:00am 10.8 WNW 2 3 1016.9 - 0.0 - - - - - - -
21/12:30am 11.3 WNW 3 4 1017.1 - 0.0 - - - - - - -
21/12:00am 11.1 WNW 2 3 1017.3 - 0.0 - - - - - - -
 
Date/Time
EDT
Temp

°C
Wind Pressure Rain
since 9am
mm
Weather Cloud Vis
km
Sea
Height
m
Swell
Dir
 
Speed
knots
Gust
knots
hPa Trend Height
m
Period
s
Dir
20/11:30pm 11.4 WNW 2 3 1017.6 - 0.0 - - - - - - -
20/11:00pm 11.4 NNW 2 2 1017.6 - 0.0 - - - - - - -
20/10:30pm 12.5 NW 2 3 1017.8 - 0.0 - - - - - - -
20/10:00pm 12.8 NW 3 4 1018.0 - 0.0 - - - - - - -
20/09:30pm 14.4 W 3 5 1017.8 - 0.0 - - - - - - -
20/09:00pm 14.5 WSW 5 7 1017.6 - 0.0 - - - - - - -
20/08:30pm 15.0 SW 6 8 1017.5 - 0.0 - - - - - - -
20/08:00pm 16.4 SW 7 10 1017.3 - 0.0 - - - - - - -
20/07:30pm 17.3 SW 9 11 1017.1 - 0.0 - - - - - - -
20/07:00pm 17.8 SW 10 13 1016.9 - 0.0 - - - - - - -
20/06:30pm 18.7 SW 10 13 1016.9 - 0.0 - - - - - - -
20/06:00pm 19.3 WSW 10 13 1016.6 - 0.0 - - - - - - -
20/05:30pm 18.1 W 12 15 1016.9 - 0.0 - - - - - - -
20/05:00pm 18.0 WSW 13 17 1017.1 - 0.0 - - - - - - -
20/04:30pm 18.2 W 15 19 1017.2 - 0.0 - - - - - - -
20/04:00pm 20.2 W 16 21 1017.3 - 0.0 - - - - - - -
20/03:30pm 19.2 W 13 18 1017.6 - 0.0 - - - - - - -
20/03:00pm 18.4 W 15 19 1017.9 - 0.0 - - - - - - -
20/02:30pm 17.6 W 15 19 1018.1 - 0.0 - - - - - - -
20/02:00pm 17.2 W 14 20 1018.1 - 0.0 - - - - - - -
20/01:30pm 18.1 W 15 20 1018.1 - 0.0 - - - - - - -
20/01:00pm 18.7 WSW 14 18 1018.1 - 0.0 - - - - - - -
20/12:30pm 18.8 WSW 15 21 1018.2 - 0.0 - - - - - - -
20/12:00pm 17.6 W 17 23 1018.3 - 0.0 - - - - - - -
20/11:30am 17.9 W 11 16 1018.3 - 0.0 - - - - - - -
20/11:00am 18.5 W 13 17 1018.3 - 0.0 - - - - - - -
20/10:30am 17.9 W 12 20 1018.1 - 0.0 - - - - - - -
20/10:00am 16.4 NW 9 12 1018.1 - 0.0 - - - - - - -
20/09:30am 16.1 WNW 8 10 1018.1 - 0.0 - - - - - - -
20/09:00am 15.4 WNW 9 14 1018.1 - 0.0 - - - - - - -
20/08:30am 15.1 NW 8 11 1017.8 - 0.0 - - - - - - -
20/08:00am 14.3 NW 8 10 1017.6 - 0.0 - - - - - - -
20/07:30am 13.8 NNW 6 9 1017.3 - 0.0 - - - - - - -
20/07:00am 12.4 NW 6 8 1017.4 - 0.0 - - - - - - -
20/06:30am 12.0 NW 7 10 1017.1 - 0.0 - - - - - - -
20/06:00am 11.2 NW 5 7 1017.0 - 0.0 - - - - - - -
20/05:30am 10.3 NW 5 7 1017.0 - 0.0 - - - - - - -
20/05:00am 9.4 NW 4 6 1016.9 - 0.0 - - - - - - -
20/04:30am 9.5 NW 5 5 1016.6 - 0.0 - - - - - - -
20/04:00am 9.3 NW 5 5 1016.9 - 0.0 - - - - - - -
20/03:30am 9.2 NW 5 6 1017.0 - 0.0 - - - - - - -
20/03:00am 9.3 NW 5 6 1017.1 - 0.0 - - - - - - -
20/02:30am 9.3 NW 5 6 1017.3 - 0.0 - - - - - - -
20/02:00am 9.8 NW 6 7 1017.4 - 0.0 - - - - - - -
20/01:30am 10.1 NW 5 6 1017.7 - 0.0 - - - - - - -
20/01:00am 10.9 WNW 5 7 1017.9 - 0.0 - - - - - - -
20/12:30am 10.9 WNW 4 5 1018.2 - 0.0 - - - - - - -
20/12:00am 12.6 W 8 10 1018.5 - 0.0 - - - - - - -
 
Date/Time
EDT
Temp

°C
Wind Pressure Rain
since 9am
mm
Weather Cloud Vis
km
Sea
Height
m
Swell
Dir
 
Speed
knots
Gust
knots
hPa Trend Height
m
Period
s
Dir
19/11:30pm 12.5 W 7 10 1018.8 - 0.0 - - - - - - -
19/11:00pm 13.4 WSW 10 15 1018.9 - 0.0 - - - - - - -
19/10:30pm 13.5 WSW 10 13 1019.0 - 0.0 - - - - - - -
19/10:00pm 13.8 WSW 10 15 1019.0 - 0.0 - - - - - - -
19/09:30pm 12.9 W 7 10 1018.9 - 0.0 - - - - - - -
19/09:00pm 13.7 WSW 11 13 1018.8 - 0.0 - - - - - - -
19/08:30pm 13.9 WSW 10 13 1018.7 - 0.0 - - - - - - -
19/08:00pm 14.9 WSW 12 16 1018.6 - 0.0 - - - - - - -
19/07:30pm 15.6 WSW 13 17 1018.3 - 0.0 - - - - - - -
19/07:00pm 16.6 WSW 14 17 1018.0 - 0.0 - - - - - - -
19/06:30pm 17.0 WSW 14 18 1017.7 - 0.0 - - - - - - -
19/06:00pm 17.2 W 15 19 1017.4 - 0.0 - - - - - - -
19/05:30pm 18.0 WSW 14 20 1017.3 - 0.0 - - - - - - -
19/05:00pm 18.0 W 15 20 1017.2 - 0.0 - - - - - - -
19/04:30pm 19.1 WSW 14 19 1017.2 - 0.0 - - - - - - -
19/04:00pm 18.5 SW 14 20 1017.2 - 0.0 - - - - - - -
19/03:30pm 17.5 SW 13 19 1017.2 - 0.0 - - - - - - -
19/03:00pm 18.5 WSW 15 20 1017.1 - 0.0 - - - - - - -
19/02:30pm 18.8 SW 15 20 1017.0 - 0.0 - - - - - - -
19/02:00pm 18.8 SW 15 19 1016.9 - 0.0 - - - - - - -
19/01:30pm 18.5 WSW 14 19 1017.0 - 0.0 - - - - - - -
19/01:00pm 18.0 SW 14 19 1017.0 - 0.0 - - - - - - -
19/12:30pm 18.0 SW 13 18 1017.0 - 0.0 - - - - - - -
19/12:00pm 18.2 SW 14 18 1016.6 - 0.0 - - - - - - -
19/11:30am 17.4 SW 15 19 1016.4 - 0.0 - - - - - - -
19/11:00am 18.0 SW 13 19 1016.0 - 0.0 - - - - - - -
19/10:30am 17.2 SW 14 18 1015.8 - 0.0 - - - - - - -
19/10:00am 15.7 SW 14 18 1015.6 - 0.0 - - - - - - -
19/09:30am 16.3 SW 13 17 1015.3 - 0.0 - - - - - - -
19/09:00am 15.9 SW 14 17 1015.2 - 1.6 - - - - - - -
19/08:30am 15.6 SW 13 18 1014.8 - 1.6 - - - - - - -
19/08:00am 14.6 SW 15 19 1014.5 - 1.6 - - - - - - -
19/07:30am 13.4 WSW 13 17 1014.2 - 1.6 - - - - - - -
19/07:00am 12.1 W 10 13 1013.8 - 1.6 - - - - - - -
19/06:30am 12.2 WSW 10 14 1013.5 - 1.2 - - - - - - -
19/06:00am 12.4 WSW 10 13 1013.0 - 1.2 - - - - - - -
19/05:30am 11.4 W 7 9 1012.8 - 1.2 - - - - - - -
19/05:00am 12.0 W 10 13 1012.6 - 1.2 - - - - - - -
19/04:30am 12.9 WSW 12 16 1012.1 - 1.2 - - - - - - -
19/04:00am 13.5 WSW 12 18 1011.8 - 1.2 - - - - - - -
19/03:30am 13.3 WSW 11 14 1011.7 - 1.2 - - - - - - -
19/03:00am 12.8 WSW 10 16 1011.7 - 1.2 - - - - - - -
19/02:30am 13.0 WSW 12 16 1011.6 - 1.2 - - - - - - -
19/02:00am 13.2 WSW 12 15 1011.6 - 1.2 - - - - - - -
19/01:30am 13.2 WSW 12 17 1011.6 - 1.2 - - - - - - -
19/01:00am 13.4 WSW 13 19 1011.6 - 1.2 - - - - - - -
19/12:30am 13.7 WSW 11 16 1011.6 - 1.2 - - - - - - -
19/12:00am 13.3 W 9 13 1011.4 - 1.2 - - - - - - -
 
Date/Time
EDT
Temp

°C
Wind Pressure Rain
since 9am
mm
Weather Cloud Vis
km
Sea
Height
m
Swell
Dir
 
Speed
knots
Gust
knots
hPa Trend Height
m
Period
s
Dir
18/11:30pm 12.9 W 9 15 1011.3 - 1.2 - - - - - - -
18/11:00pm 13.0 W 9 12 1011.3 - 1.2 - - - - - - -
18/10:30pm 13.1 W 11 14 1011.1 - 1.2 - - - - - - -
18/10:00pm 13.5 W 11 18 1010.9 - 1.2 - - - - - - -
18/09:30pm 13.6 W 9 13 1010.5 - 1.2 - - - - - - -
18/09:00pm 14.0 WSW 13 18 1010.1 - 1.2 - - - - - - -
18/08:30pm 14.2 W 13 17 1009.6 - 1.2 - - - - - - -
18/08:00pm 14.5 W 13 18 1009.4 - 1.2 - - - - - - -
18/07:30pm 15.0 WNW 9 13 1009.0 - 1.2 - - - - - - -
18/07:00pm 14.2 WNW 9 13 1008.6 - 1.2 - - - - - - -
18/06:30pm 13.6 W 10 17 1007.9 - 1.0 - - - - - - -
18/06:00pm 13.6 W 14 19 1008.1 - 0.6 Recent precip. - - - - - -
18/05:30pm 13.9 W 20 27 1007.9 - 0.0 - - - - - - -
18/05:04pm 15.5 WSW 22 33 1007.2 - 0.0 - - - - - - -
18/05:00pm 16.2 WSW 19 26 1007.0 - 0.0 - - - - - - -
18/04:30pm 19.0 SW 20 26 1006.6 - 0.0 - - - - - - -
18/04:00pm 19.9 WSW 15 20 1006.0 - 0.0 - - - - - - -
18/03:30pm 19.3 SW 13 18 1005.6 - 0.0 - - - - - - -
18/03:00pm 20.5 SW 14 18 1005.4 - 0.0 - - - - - - -
18/02:30pm 20.1 WSW 12 17 1005.4 - 0.0 - - - - - - -
18/02:00pm 18.3 W 15 21 1005.8 - 0.0 - - - - - - -
18/01:30pm 18.8 WSW 19 25 1005.5 - 0.0 - - - - - - -
18/01:00pm 20.3 W 21 27 1005.3 - 0.0 - - - - - - -
18/12:30pm 20.8 W 20 26 1005.2 - 0.0 - - - - - - -
18/12:00pm 22.1 W 16 23 1004.7 - 0.0 - - - - - - -
18/11:30am 21.7 W 14 19 1004.4 - 0.0 - - - - - - -
18/11:00am 22.2 NW 10 14 1004.3 - 0.0 - - - - - - -
18/10:30am 21.3 NW 12 18 1004.5 - 0.0 - - - - - - -
18/10:00am 20.7 WNW 9 13 1004.6 - 0.0 - - - - - - -
18/09:30am 19.3 NNW 3 4 1004.8 - 0.0 - - - - - - -
18/09:00am 18.0 NNE 3 4 1005.0 - 0.0 - - - - - - -
18/08:30am 17.2 ENE 6 7 1004.8 - 0.0 - - - - - - -
18/08:00am 16.3 NE 5 7 1005.0 - 0.0 - - - - - - -
18/07:30am 14.0 NNE 2 3 1005.1 - 0.0 - - - - - - -
18/07:00am 11.5 NNE 1 2 1005.2 - 0.0 - - - - - - -
18/06:30am 10.4 NNE 3 3 1005.4 - 0.0 - - - - - - -
18/06:00am 12.1 NE 4 6 1005.4 - 0.0 - - - - - - -
18/05:30am 12.4 NE 6 8 1005.3 - 0.0 - - - - - - -
18/05:00am 12.6 NE 6 9 1005.2 - 0.0 - - - - - - -
18/04:30am 13.1 ENE 7 11 1005.2 - 0.0 - - - - - - -

Other Formats:

Comma delimited format used in spreadsheet applications
http://www.bom.gov.au/fwo/IDV60701/IDV60701.94911.axf

JavaScript Object Notation format (JSON) in row-major order
http://www.bom.gov.au/fwo/IDV60701/IDV60701.94911.json